createdAt,value
2023-03-10T00:01:19.639Z,27.90
2023-03-10T00:03:47.137Z,28.15
2023-03-10T00:06:17.789Z,28.88
2023-03-10T00:08:47.029Z,27.83
2023-03-10T00:11:14.076Z,28.13
2023-03-10T00:13:41.163Z,28.85
2023-03-10T00:16:08.756Z,29.42
2023-03-10T00:18:35.592Z,30.83
2023-03-10T00:21:02.175Z,29.48
2023-03-10T00:23:28.727Z,30.27
2023-03-10T00:25:56.880Z,30.73
2023-03-10T00:28:23.850Z,31.75
2023-03-10T00:31:06.076Z,31.77
2023-03-10T00:33:34.344Z,32.45
2023-03-10T00:36:11.227Z,32.55
2023-03-10T00:38:39.447Z,31.35
2023-03-10T00:41:15.565Z,27.30
2023-03-10T00:43:42.640Z,27.98
2023-03-10T00:46:09.775Z,30.92
2023-03-10T00:48:37.132Z,30.92
2023-03-10T00:51:04.615Z,32.95
2023-03-10T00:53:31.675Z,34.90
2023-03-10T00:55:58.156Z,36.50
2023-03-10T00:58:24.931Z,34.55
2023-03-10T01:00:51.543Z,35.28
2023-03-10T01:03:19.104Z,38.80
2023-03-10T01:05:45.868Z,38.28
2023-03-10T01:08:12.463Z,38.55
2023-03-10T01:10:39.023Z,37.50
2023-03-10T01:13:05.616Z,36.65
2023-03-10T01:15:32.196Z,40.33
2023-03-10T01:18:02.200Z,41.00
2023-03-10T01:20:28.921Z,44.78
2023-03-10T01:22:55.520Z,48.53
2023-03-10T01:25:23.365Z,48.58
2023-03-10T01:27:49.946Z,63.88
2023-03-10T01:30:16.705Z,67.13
2023-03-10T01:32:43.274Z,65.03
2023-03-10T01:35:10.528Z,56.25
2023-03-10T01:37:37.229Z,49.85
2023-03-10T01:40:05.450Z,51.67
2023-03-10T01:42:32.413Z,48.58
2023-03-10T01:45:08.246Z,43.08
2023-03-10T01:47:34.993Z,44.97
2023-03-10T01:50:03.938Z,44.05
2023-03-10T01:52:33.519Z,42.38
2023-03-10T01:55:11.622Z,40.20
2023-03-10T01:57:44.082Z,39.42
2023-03-10T02:00:12.332Z,41.55
2023-03-10T02:02:56.782Z,36.67
2023-03-10T02:05:24.630Z,36.38
2023-03-10T02:07:52.093Z,36.30
2023-03-10T02:10:18.729Z,35.58
2023-03-10T02:12:45.525Z,35.30
2023-03-10T02:15:13.111Z,36.92
2023-03-10T02:17:40.720Z,35.17
2023-03-10T02:20:16.593Z,35.50
2023-03-10T02:22:43.270Z,34.42
2023-03-10T02:25:21.342Z,35.58
2023-03-10T02:27:48.195Z,36.25
2023-03-10T02:30:41.530Z,35.17
2023-03-10T02:33:13.593Z,33.22
2023-03-10T02:44:49.387Z,34.85
2023-03-10T02:47:16.418Z,31.15
2023-03-10T02:49:44.024Z,29.02
2023-03-10T02:52:26.849Z,28.02
2023-03-10T02:54:53.544Z,26.00
2023-03-10T02:57:20.185Z,24.38
2023-03-10T02:59:46.775Z,26.83
2023-03-10T03:02:13.348Z,27.20
2023-03-10T03:04:39.909Z,27.58
2023-03-10T03:07:06.500Z,37.00
2023-03-10T03:09:33.180Z,35.47
2023-03-10T03:12:01.104Z,28.90
2023-03-10T03:14:27.699Z,26.80
2023-03-10T03:16:54.352Z,26.17
2023-03-10T03:19:20.913Z,23.67
2023-03-10T03:21:50.064Z,23.00
2023-03-10T03:24:18.261Z,22.58
2023-03-10T03:26:44.918Z,21.98
2023-03-10T03:29:12.096Z,23.80
2023-03-10T03:31:39.299Z,23.50
2023-03-10T03:34:06.563Z,22.95
2023-03-10T03:36:33.569Z,23.05
2023-03-10T03:39:00.204Z,23.05
2023-03-10T03:41:26.943Z,22.70
2023-03-10T03:43:53.565Z,21.90
2023-03-10T03:46:20.190Z,20.88
2023-03-10T03:48:46.752Z,20.70
2023-03-10T03:51:13.304Z,20.75
2023-03-10T03:53:39.921Z,21.60
2023-03-10T03:56:06.807Z,21.55
2023-03-10T03:58:33.492Z,20.85
2023-03-10T04:01:00.113Z,20.60
2023-03-10T04:03:26.847Z,21.45
2023-03-10T04:05:53.475Z,22.30
2023-03-10T04:08:20.127Z,22.63
2023-03-10T04:10:54.462Z,23.80
2023-03-10T04:13:21.589Z,26.33
2023-03-10T04:15:48.238Z,24.65
2023-03-10T04:18:14.853Z,23.35
2023-03-10T04:20:41.446Z,22.88
2023-03-10T04:23:08.018Z,24.05
2023-03-10T04:25:34.598Z,22.20
2023-03-10T04:28:01.199Z,22.35
2023-03-10T04:30:29.746Z,23.48
2023-03-10T04:33:00.754Z,20.98
2023-03-10T04:35:28.144Z,21.67
2023-03-10T04:37:55.454Z,23.13
2023-03-10T04:40:22.256Z,21.52
2023-03-10T04:42:48.876Z,21.05
2023-03-10T04:45:15.468Z,21.75
2023-03-10T04:47:42.350Z,21.67
2023-03-10T04:50:10.774Z,22.45
2023-03-10T04:52:37.360Z,23.52
2023-03-10T04:55:04.399Z,24.40
2023-03-10T04:57:30.996Z,24.65
2023-03-10T04:59:57.641Z,22.77
2023-03-10T05:02:24.254Z,25.02
2023-03-10T05:04:50.894Z,25.60
2023-03-10T05:07:17.558Z,29.98
2023-03-10T05:09:44.165Z,27.05
2023-03-10T05:12:11.425Z,27.48
2023-03-10T05:14:38.216Z,26.67
2023-03-10T05:17:04.990Z,26.05
2023-03-10T05:19:34.696Z,26.40
2023-03-10T05:22:02.227Z,26.70
2023-03-10T05:24:28.800Z,28.38
2023-03-10T05:26:55.361Z,27.65
2023-03-10T05:29:22.055Z,27.60
2023-03-10T05:31:48.730Z,29.33
2023-03-10T05:34:16.017Z,30.17
2023-03-10T05:36:43.397Z,30.83
2023-03-10T05:39:11.130Z,30.73
2023-03-10T05:41:38.644Z,31.45
2023-03-10T05:44:05.460Z,34.25
2023-03-10T05:46:32.112Z,35.28
2023-03-10T05:48:58.870Z,39.63
2023-03-10T05:51:25.505Z,36.03
2023-03-10T05:53:52.037Z,38.40
2023-03-10T05:56:19.882Z,36.80
2023-03-10T05:58:47.201Z,37.22
2023-03-10T06:01:14.546Z,37.70
2023-03-10T06:03:41.387Z,36.45
2023-03-10T06:06:08.308Z,32.67
2023-03-10T06:08:35.377Z,30.80
2023-03-10T06:11:02.019Z,30.75
2023-03-10T06:13:28.966Z,31.98
2023-03-10T06:15:58.190Z,34.05
2023-03-10T06:18:25.390Z,37.53
2023-03-10T06:20:53.682Z,37.08
2023-03-10T06:23:21.846Z,33.90
2023-03-10T06:26:08.520Z,32.22
2023-03-10T06:28:37.791Z,27.88
2023-03-10T06:31:08.274Z,26.00
2023-03-10T06:33:35.558Z,27.15
2023-03-10T06:36:02.546Z,28.05
2023-03-10T06:38:30.483Z,27.08
2023-03-10T06:40:58.000Z,28.65
2023-03-10T06:43:24.855Z,28.38
2023-03-10T06:45:51.517Z,29.65
2023-03-10T06:48:18.263Z,30.45
2023-03-10T06:50:48.010Z,31.55
2023-03-10T06:53:17.055Z,27.65
2023-03-10T06:55:43.643Z,26.50
2023-03-10T06:58:10.272Z,26.73
2023-03-10T07:00:39.043Z,27.55
2023-03-10T07:03:05.976Z,26.83
2023-03-10T07:05:32.517Z,29.15
2023-03-10T07:07:59.095Z,32.65
2023-03-10T07:10:33.189Z,31.83
2023-03-10T07:12:59.763Z,31.90
2023-03-10T07:15:26.988Z,33.45
2023-03-10T07:17:56.206Z,34.22
2023-03-10T07:20:24.358Z,33.35
2023-03-10T07:22:51.939Z,33.78
2023-03-10T07:25:18.764Z,32.50
2023-03-10T07:27:45.417Z,31.50
2023-03-10T07:30:12.674Z,29.42
2023-03-10T07:32:39.364Z,30.58
2023-03-10T07:35:06.568Z,31.75
2023-03-10T07:37:33.163Z,33.35
2023-03-10T07:39:59.738Z,33.58
2023-03-10T07:42:26.299Z,39.33
2023-03-10T07:44:52.999Z,45.92
2023-03-10T07:47:19.606Z,50.00
2023-03-10T07:49:47.033Z,51.53
2023-03-10T07:52:18.284Z,59.00
2023-03-10T07:54:45.396Z,66.53
2023-03-10T07:57:13.465Z,68.88
2023-03-10T07:59:40.652Z,78.57
2023-03-10T08:02:07.997Z,85.65
2023-03-10T08:04:34.836Z,94.82
2023-03-10T08:07:03.270Z,110.32
2023-03-10T08:09:30.475Z,130.25
2023-03-10T08:12:01.081Z,153.88
2023-03-10T08:14:29.324Z,160.85
2023-03-10T08:16:58.754Z,158.73
2023-03-10T08:19:26.556Z,155.25
2023-03-10T08:21:57.633Z,213.95
2023-03-10T08:24:25.101Z,211.05
2023-03-10T08:26:51.729Z,203.40
2023-03-10T08:29:18.377Z,165.68
2023-03-10T08:31:45.143Z,130.88
2023-03-10T08:34:12.444Z,82.20
2023-03-10T08:36:39.434Z,50.63
2023-03-10T08:39:07.449Z,44.20
2023-03-10T08:41:42.666Z,41.55
2023-03-10T08:44:11.844Z,36.70
2023-03-10T08:46:38.609Z,35.58
2023-03-10T08:49:05.245Z,35.60
2023-03-10T08:51:31.828Z,35.95
2023-03-10T08:53:58.783Z,34.63
2023-03-10T08:56:25.377Z,32.72
2023-03-10T08:58:59.078Z,31.58
2023-03-10T09:01:27.672Z,29.93
2023-03-10T09:03:54.318Z,32.88
2023-03-10T09:06:20.915Z,30.83
2023-03-10T09:08:50.663Z,28.88
2023-03-10T09:11:22.167Z,26.67
2023-03-10T09:13:49.353Z,27.58
2023-03-10T09:16:16.527Z,28.25
2023-03-10T09:18:43.580Z,28.95
2023-03-10T09:21:13.364Z,28.38
2023-03-10T09:23:42.858Z,33.63
2023-03-10T09:26:09.471Z,33.45
2023-03-10T09:28:36.462Z,38.53
2023-03-10T09:31:07.912Z,36.95
2023-03-10T09:33:34.713Z,35.72
2023-03-10T09:36:07.445Z,39.92
2023-03-10T09:38:36.048Z,38.78
2023-03-10T09:41:28.225Z,40.75
2023-03-10T09:44:18.686Z,38.55
2023-03-10T09:47:02.529Z,39.03
2023-03-10T09:49:33.781Z,42.10
2023-03-10T09:52:07.127Z,41.03
2023-03-10T09:54:47.421Z,41.85
2023-03-10T09:57:18.991Z,43.25
2023-03-10T09:59:49.027Z,42.95
2023-03-10T10:02:33.028Z,42.30
2023-03-10T10:05:04.312Z,39.20
2023-03-10T10:07:45.347Z,40.30
2023-03-10T10:10:19.141Z,38.15
2023-03-10T10:12:50.272Z,38.42
2023-03-10T10:15:21.948Z,35.25
2023-03-10T10:18:16.092Z,31.60
2023-03-10T10:21:01.982Z,29.27
2023-03-10T10:23:38.910Z,27.83
2023-03-10T10:26:11.876Z,26.95
2023-03-10T10:28:43.125Z,26.15
2023-03-10T10:31:17.051Z,21.88
2023-03-10T10:34:03.947Z,24.25
2023-03-10T10:36:41.471Z,19.70
2023-03-10T10:39:33.090Z,20.67
2023-03-10T10:42:26.227Z,21.08
2023-03-10T10:45:02.452Z,21.58
2023-03-10T10:47:30.955Z,20.95
2023-03-10T10:50:22.862Z,21.55
2023-03-10T10:52:53.233Z,23.20
2023-03-10T10:55:27.773Z,21.60
2023-03-10T10:58:01.767Z,20.85
2023-03-10T11:00:38.568Z,20.05
2023-03-10T11:03:34.392Z,19.83
2023-03-10T11:06:12.169Z,19.85
2023-03-10T11:08:40.697Z,19.35
2023-03-10T11:11:18.750Z,20.52
2023-03-10T11:13:51.406Z,19.42
2023-03-10T11:16:31.938Z,18.67
2023-03-10T11:19:32.230Z,18.08
2023-03-10T11:22:07.481Z,19.52
2023-03-10T11:25:00.697Z,18.70
2023-03-10T11:27:43.930Z,18.55
2023-03-10T11:30:29.775Z,17.98
2023-03-10T11:33:05.518Z,17.23
2023-03-10T11:35:37.930Z,16.13
2023-03-10T11:38:19.524Z,16.10
2023-03-10T11:40:58.339Z,15.40
2023-03-10T11:43:37.063Z,16.35
2023-03-10T11:46:36.659Z,17.42
2023-03-10T11:49:06.056Z,16.40
2023-03-10T11:51:41.933Z,16.80
2023-03-10T11:54:14.120Z,13.40
2023-03-10T11:56:41.669Z,13.20
2023-03-10T11:59:20.572Z,12.80
2023-03-10T12:01:53.145Z,12.57
2023-03-10T12:04:44.482Z,15.25
2023-03-10T12:07:31.822Z,12.40
2023-03-10T12:10:00.916Z,13.10
2023-03-10T12:12:32.420Z,12.05
2023-03-10T12:15:11.278Z,13.77
2023-03-10T12:17:39.805Z,13.40
2023-03-10T12:20:12.165Z,12.32
2023-03-10T12:22:56.170Z,12.35
2023-03-10T12:25:28.562Z,11.23
2023-03-10T12:28:17.113Z,11.98
2023-03-10T12:30:43.799Z,11.50
2023-03-10T12:33:46.485Z,11.23
2023-03-10T12:36:37.280Z,11.98
2023-03-10T12:39:31.664Z,11.88
2023-03-10T12:45:02.196Z,11.93
2023-03-10T12:47:43.059Z,11.80
2023-03-10T12:50:22.779Z,12.35
2023-03-10T12:52:59.451Z,12.48
2023-03-10T12:55:27.990Z,12.23
2023-03-10T12:58:02.628Z,11.65
2023-03-10T13:00:47.526Z,11.98
2023-03-10T13:03:18.339Z,11.00
2023-03-10T13:06:03.672Z,10.48
2023-03-10T13:08:39.441Z,10.48
2023-03-10T13:11:16.465Z,9.82
2023-03-10T13:13:43.866Z,9.98
2023-03-10T13:16:18.687Z,10.02
2023-03-10T13:18:53.168Z,9.10
2023-03-10T13:21:39.470Z,9.23
2023-03-10T13:24:26.660Z,10.27
2023-03-10T13:27:18.910Z,9.50
2023-03-10T13:30:05.847Z,9.65
2023-03-10T13:32:33.427Z,9.30
2023-03-10T13:35:20.484Z,9.43
2023-03-10T13:38:08.964Z,9.57
2023-03-10T13:40:37.794Z,10.02
2023-03-10T13:43:06.971Z,10.38
2023-03-10T13:45:36.250Z,10.20
2023-03-10T13:48:06.438Z,10.38
2023-03-10T13:50:33.223Z,10.43
2023-03-10T13:53:00.285Z,10.15
2023-03-10T13:55:28.671Z,10.98
2023-03-10T13:57:56.096Z,10.70
2023-03-10T14:00:25.977Z,10.75
2023-03-10T14:02:53.721Z,10.43
2023-03-10T14:05:49.308Z,11.48
2023-03-10T14:08:28.876Z,12.63
2023-03-10T14:11:24.248Z,11.70
2023-03-10T14:13:51.790Z,11.90
2023-03-10T14:16:18.433Z,12.60
2023-03-10T14:18:45.197Z,14.20
2023-03-10T14:21:33.279Z,13.02
2023-03-10T14:24:10.518Z,13.65
2023-03-10T14:26:38.925Z,13.93
2023-03-10T14:29:17.485Z,17.13
2023-03-10T14:31:49.680Z,14.75
2023-03-10T14:34:16.253Z,17.48
2023-03-10T14:36:42.850Z,18.02
2023-03-10T14:39:09.620Z,16.17
2023-03-10T14:41:36.441Z,16.58
2023-03-10T14:44:03.485Z,15.13
2023-03-10T14:46:32.846Z,15.60
2023-03-10T14:48:59.607Z,16.17
2023-03-10T14:51:35.400Z,15.50
2023-03-10T14:54:03.172Z,16.05
2023-03-10T14:56:30.296Z,15.65
2023-03-10T14:59:01.996Z,15.85
2023-03-10T15:01:29.389Z,16.92
2023-03-10T15:03:56.130Z,16.27
2023-03-10T15:06:22.844Z,15.88
2023-03-10T15:08:49.394Z,17.42
2023-03-10T15:11:24.090Z,17.45
2023-03-10T15:13:58.265Z,17.95
2023-03-10T15:16:25.108Z,18.58
2023-03-10T15:18:53.933Z,18.35
2023-03-10T15:21:20.487Z,20.52
2023-03-10T15:23:47.055Z,23.52
2023-03-10T15:26:13.895Z,29.35
2023-03-10T15:28:40.498Z,37.35
2023-03-10T15:31:07.181Z,44.38
2023-03-10T15:33:33.842Z,45.72
2023-03-10T15:36:00.506Z,54.25
2023-03-10T15:38:27.168Z,55.78
2023-03-10T15:40:53.788Z,67.55
2023-03-10T15:43:20.358Z,79.30
2023-03-10T15:45:49.164Z,70.13
2023-03-10T15:48:16.389Z,82.15
2023-03-10T15:50:44.818Z,69.72
2023-03-10T15:53:11.348Z,81.70
2023-03-10T15:55:41.415Z,83.35
2023-03-10T15:58:09.566Z,67.25
2023-03-10T16:00:36.221Z,59.13
2023-03-10T16:03:02.869Z,68.82
2023-03-10T16:05:29.520Z,56.35
2023-03-10T16:07:56.146Z,47.03
2023-03-10T16:10:22.704Z,38.78
2023-03-10T16:12:49.262Z,27.40
2023-03-10T16:15:18.199Z,26.90
2023-03-10T16:17:45.078Z,23.42
2023-03-10T16:20:16.960Z,22.33
2023-03-10T16:22:43.622Z,20.10
2023-03-10T16:25:18.493Z,19.02
2023-03-10T16:27:46.358Z,18.88
2023-03-10T16:30:17.240Z,19.73
2023-03-10T16:32:45.842Z,22.58
2023-03-10T16:35:12.776Z,30.27
2023-03-10T16:37:39.375Z,36.45
2023-03-10T16:40:07.641Z,58.10
2023-03-10T16:42:38.667Z,49.47
2023-03-10T16:45:06.781Z,62.30
2023-03-10T16:47:33.757Z,66.28
2023-03-10T16:50:00.437Z,63.35
2023-03-10T16:52:27.064Z,52.88
2023-03-10T16:54:58.346Z,56.42
2023-03-10T16:57:25.032Z,62.00
2023-03-10T16:59:53.160Z,69.03
2023-03-10T17:02:19.725Z,79.00
2023-03-10T17:04:46.343Z,75.25
2023-03-10T17:07:14.191Z,75.45
2023-03-10T17:09:40.769Z,87.68
2023-03-10T17:12:07.521Z,90.57
2023-03-10T17:14:34.159Z,94.07
2023-03-10T17:17:01.458Z,90.20
2023-03-10T17:19:30.891Z,92.25
2023-03-10T17:21:58.722Z,100.32
2023-03-10T17:24:25.968Z,101.78
2023-03-10T17:26:52.648Z,91.13
2023-03-10T17:29:19.255Z,97.65
2023-03-10T17:31:50.274Z,102.28
2023-03-10T17:34:18.270Z,93.95
2023-03-10T17:36:45.087Z,97.07
2023-03-10T17:39:17.403Z,100.05
2023-03-10T17:41:43.966Z,98.55
2023-03-10T17:44:11.261Z,94.68
2023-03-10T17:46:40.881Z,98.32
2023-03-10T17:49:07.639Z,101.57
2023-03-10T17:51:34.335Z,104.07
2023-03-10T17:54:01.742Z,97.55
2023-03-10T17:56:29.128Z,97.60
2023-03-10T17:58:57.091Z,95.90
2023-03-10T18:01:29.176Z,89.32
2023-03-10T18:03:57.799Z,83.85
2023-03-10T18:06:30.175Z,76.68
2023-03-10T18:08:58.376Z,73.32
2023-03-10T18:11:26.423Z,72.10
2023-03-10T18:13:53.412Z,70.07
2023-03-10T18:16:21.960Z,69.47
2023-03-10T18:18:48.987Z,69.00
2023-03-10T18:21:16.897Z,70.22
2023-03-10T18:23:43.898Z,65.38
2023-03-10T18:26:20.051Z,69.13
2023-03-10T18:28:47.034Z,67.13
2023-03-10T18:31:26.656Z,72.10
2023-03-10T18:33:53.362Z,74.78
2023-03-10T18:36:20.777Z,84.15
2023-03-10T18:38:48.000Z,98.72
2023-03-10T18:41:17.511Z,101.03
2023-03-10T18:43:44.089Z,105.80
2023-03-10T18:46:11.026Z,105.15
2023-03-10T18:48:37.713Z,107.25
2023-03-10T18:51:04.563Z,112.00
2023-03-10T18:53:31.477Z,114.47
2023-03-10T18:55:59.651Z,123.53
2023-03-10T18:58:26.388Z,122.60
2023-03-10T19:00:53.097Z,126.35
2023-03-10T19:03:19.769Z,122.65
2023-03-10T19:05:46.489Z,118.57
2023-03-10T19:08:13.124Z,116.57
2023-03-10T19:10:40.214Z,119.25
2023-03-10T19:13:08.375Z,110.93
2023-03-10T19:15:37.645Z,103.50
2023-03-10T19:18:05.167Z,74.80
2023-03-10T19:20:31.761Z,58.47
2023-03-10T19:22:58.354Z,58.42
2023-03-10T19:25:25.034Z,49.05
2023-03-10T19:27:51.992Z,50.85
2023-03-10T19:30:20.773Z,53.00
2023-03-10T19:32:48.284Z,55.25
2023-03-10T19:35:15.866Z,51.67
2023-03-10T19:37:46.121Z,49.42
2023-03-10T19:40:16.137Z,50.20
2023-03-10T19:42:43.397Z,50.67
2023-03-10T19:45:15.731Z,44.47
2023-03-10T19:47:43.463Z,45.42
2023-03-10T19:50:12.328Z,55.13
2023-03-10T19:52:44.578Z,49.70
2023-03-10T19:55:19.598Z,52.03
2023-03-10T19:57:48.727Z,60.75
2023-03-10T20:00:18.852Z,60.35
2023-03-10T20:02:45.638Z,55.58
2023-03-10T20:05:14.997Z,61.03
2023-03-10T20:07:44.214Z,68.93
2023-03-10T20:10:11.475Z,68.90
2023-03-10T20:12:38.224Z,81.60
2023-03-10T20:15:06.061Z,72.53
2023-03-10T20:17:32.764Z,76.10
2023-03-10T20:19:59.442Z,75.82
2023-03-10T20:22:26.105Z,78.20
2023-03-10T20:24:52.836Z,84.03
2023-03-10T20:27:19.522Z,81.93
2023-03-10T20:29:46.081Z,88.32
2023-03-10T20:32:12.909Z,89.43
2023-03-10T20:34:41.239Z,85.28
2023-03-10T20:37:08.108Z,85.95
2023-03-10T20:39:34.801Z,83.85
2023-03-10T20:42:01.461Z,84.07
2023-03-10T20:44:28.283Z,84.18
2023-03-10T20:46:54.930Z,86.95
2023-03-10T20:49:21.525Z,86.03
2023-03-10T20:51:48.169Z,84.68
2023-03-10T20:54:14.724Z,82.50
2023-03-10T20:56:41.283Z,83.47
2023-03-10T20:59:07.830Z,82.65
2023-03-10T21:01:39.466Z,78.55
2023-03-10T21:04:06.358Z,79.95
2023-03-10T21:06:33.170Z,77.55
2023-03-10T21:09:05.740Z,75.47
2023-03-10T21:11:33.974Z,72.35
2023-03-10T21:14:00.692Z,66.45
2023-03-10T21:16:28.055Z,67.40
2023-03-10T21:18:54.795Z,68.93
2023-03-10T21:21:21.924Z,60.35
2023-03-10T21:23:48.698Z,55.85
2023-03-10T21:26:20.601Z,52.70
2023-03-10T21:28:47.798Z,49.88
2023-03-10T21:31:15.131Z,44.75
2023-03-10T21:33:41.919Z,43.30
2023-03-10T21:36:13.962Z,42.47
2023-03-10T21:38:41.041Z,41.85
2023-03-10T21:41:08.901Z,39.25
2023-03-10T21:43:35.698Z,37.95
2023-03-10T21:46:02.274Z,37.05
2023-03-10T21:48:28.870Z,36.35
2023-03-10T21:50:55.488Z,38.10
2023-03-10T21:53:22.108Z,36.50
2023-03-10T21:55:48.814Z,36.50
2023-03-10T21:58:15.331Z,36.53
2023-03-10T22:00:41.924Z,36.97
2023-03-10T22:03:08.522Z,35.42
2023-03-10T22:05:35.099Z,38.17
2023-03-10T22:08:01.762Z,37.35
2023-03-10T22:10:28.349Z,37.63
2023-03-10T22:12:54.994Z,39.80
2023-03-10T22:15:25.155Z,41.55
2023-03-10T22:17:55.289Z,39.75
2023-03-10T22:20:25.179Z,40.25
2023-03-10T22:22:51.948Z,41.72
2023-03-10T22:25:19.157Z,43.63
2023-03-10T22:27:50.356Z,41.97
2023-03-10T22:30:17.545Z,43.90
2023-03-10T22:32:44.288Z,44.95
2023-03-10T22:35:10.999Z,45.55
2023-03-10T22:37:38.213Z,42.28
2023-03-10T22:40:06.242Z,40.50
2023-03-10T22:42:32.780Z,39.83
2023-03-10T22:45:00.836Z,38.92
2023-03-10T22:47:27.419Z,35.50
2023-03-10T22:49:54.553Z,34.03
2023-03-10T22:52:21.110Z,32.92
2023-03-10T22:54:47.714Z,32.50
2023-03-10T22:57:15.386Z,32.28
2023-03-10T22:59:42.113Z,31.10
2023-03-10T23:02:08.897Z,30.42
2023-03-10T23:04:35.609Z,30.48
2023-03-10T23:07:02.164Z,29.52
2023-03-10T23:09:28.864Z,30.48
2023-03-10T23:11:55.402Z,32.63
2023-03-10T23:14:22.041Z,34.17
2023-03-10T23:16:48.630Z,48.42
2023-03-10T23:19:15.222Z,49.15
2023-03-10T23:21:41.735Z,49.90
2023-03-10T23:24:08.471Z,47.33
2023-03-10T23:26:37.313Z,48.42
2023-03-10T23:29:04.075Z,41.53
2023-03-10T23:31:30.759Z,35.30
2023-03-10T23:33:57.413Z,30.40
2023-03-10T23:36:24.302Z,24.40
2023-03-10T23:38:50.820Z,22.55
2023-03-10T23:41:18.440Z,21.92
2023-03-10T23:43:45.218Z,21.20
2023-03-10T23:46:11.908Z,21.08
2023-03-10T23:48:38.562Z,20.83
2023-03-10T23:51:05.466Z,21.20
2023-03-10T23:53:32.095Z,20.25
2023-03-10T23:56:00.131Z,20.65
2023-03-10T23:58:28.069Z,20.70
